createdAt,value
2023-01-29T00:03:13.019Z,101846.31
2023-01-29T00:07:45.777Z,101849.07
2023-01-29T00:12:18.041Z,101854.00
2023-01-29T00:16:56.673Z,101868.48
2023-01-29T00:21:24.666Z,101860.02
2023-01-29T00:25:55.714Z,101855.61
2023-01-29T00:30:31.248Z,101849.71
2023-01-29T00:35:04.236Z,101848.87
2023-01-29T00:39:47.402Z,101860.86
2023-01-29T00:44:19.043Z,101863.02
2023-01-29T00:48:51.479Z,101858.71
2023-01-29T00:53:37.450Z,101846.71
2023-01-29T00:58:09.597Z,101848.45
2023-01-29T01:02:40.834Z,101846.17
2023-01-29T01:11:44.904Z,101827.63
2023-01-29T01:16:17.863Z,101825.52
2023-01-29T01:25:37.683Z,101803.39
2023-01-29T01:30:10.280Z,101794.67
2023-01-29T01:34:42.788Z,101787.67
2023-01-29T01:39:15.427Z,101792.06
2023-01-29T01:43:54.367Z,101783.98
2023-01-29T01:49:05.970Z,101779.11
2023-01-29T01:53:37.900Z,101779.48
2023-01-29T01:58:08.481Z,101770.90
2023-01-29T02:02:39.287Z,101770.29
2023-01-29T02:07:01.333Z,101754.94
2023-01-29T02:11:34.041Z,101742.52
2023-01-29T02:15:50.089Z,101735.11
2023-01-29T02:20:23.180Z,101725.12
2023-01-29T02:24:58.861Z,101714.14
2023-01-29T02:29:27.677Z,101711.52
2023-01-29T02:34:10.965Z,101714.39
2023-01-29T02:38:43.669Z,101713.75
2023-01-29T02:43:16.151Z,101716.98
2023-01-29T02:48:00.641Z,101726.20
2023-01-29T02:52:33.116Z,101720.90
2023-01-29T02:57:08.664Z,101718.20
2023-01-29T03:01:34.620Z,101716.54
2023-01-29T03:06:07.414Z,101719.47
2023-01-29T03:10:34.533Z,101709.44
2023-01-29T03:15:05.253Z,101700.94
2023-01-29T03:19:39.534Z,101695.47
2023-01-29T03:24:10.738Z,101703.15
2023-01-29T03:28:44.594Z,101699.27
2023-01-29T03:33:09.714Z,101697.52
2023-01-29T03:37:40.646Z,101690.83
2023-01-29T03:42:32.275Z,101678.48
2023-01-29T03:47:07.557Z,101673.34
2023-01-29T03:51:40.211Z,101684.56
2023-01-29T03:56:18.500Z,101678.89
2023-01-29T04:00:53.399Z,101668.74
2023-01-29T04:05:26.173Z,101666.48
2023-01-29T04:10:15.618Z,101655.86
2023-01-29T04:14:48.702Z,101638.41
2023-01-29T04:19:21.461Z,101630.92
2023-01-29T04:24:08.416Z,101631.63
2023-01-29T04:28:42.678Z,101623.46
2023-01-29T04:33:13.925Z,101613.64
2023-01-29T04:37:55.016Z,101612.80
2023-01-29T04:42:25.291Z,101620.09
2023-01-29T04:47:09.942Z,101626.39
2023-01-29T04:51:59.450Z,101602.92
2023-01-29T04:56:47.036Z,101597.95
2023-01-29T05:01:19.292Z,101602.69
2023-01-29T05:05:51.553Z,101595.17
2023-01-29T05:10:23.851Z,101595.05
2023-01-29T05:14:56.873Z,101587.96
2023-01-29T05:19:29.664Z,101571.85
2023-01-29T05:24:18.327Z,101565.78
2023-01-29T05:28:51.115Z,101551.07
2023-01-29T05:33:23.442Z,101553.00
2023-01-29T05:37:55.747Z,101552.08
2023-01-29T05:42:28.425Z,101552.42
2023-01-29T05:47:00.272Z,101543.27
2023-01-29T05:51:32.580Z,101545.92
2023-01-29T05:55:59.274Z,101538.48
2023-01-29T06:00:31.402Z,101540.23
2023-01-29T06:05:03.935Z,101542.02
2023-01-29T06:09:36.400Z,101526.89
2023-01-29T06:14:09.192Z,101531.27
2023-01-29T06:18:41.402Z,101540.20
2023-01-29T06:23:14.054Z,101542.80
2023-01-29T06:27:46.038Z,101534.52
2023-01-29T06:32:19.619Z,101526.77
2023-01-29T06:36:52.457Z,101524.06
2023-01-29T06:41:24.954Z,101517.34
2023-01-29T06:45:57.815Z,101514.09
2023-01-29T06:50:30.790Z,101523.83
2023-01-29T06:55:03.916Z,101527.94
2023-01-29T06:59:39.388Z,101522.94
2023-01-29T07:04:12.044Z,101507.99
2023-01-29T07:09:03.459Z,101503.45
2023-01-29T07:13:35.994Z,101503.38
2023-01-29T07:18:00.187Z,101499.17
2023-01-29T07:22:32.839Z,101497.44
2023-01-29T07:26:59.683Z,101493.84
2023-01-29T07:31:32.704Z,101494.88
2023-01-29T07:36:05.952Z,101494.15
2023-01-29T07:40:38.260Z,101505.34
2023-01-29T07:45:10.917Z,101502.38
2023-01-29T07:49:21.349Z,101501.73
2023-01-29T07:53:57.352Z,101494.04
2023-01-29T07:58:29.627Z,101501.04
2023-01-29T08:08:00.858Z,101497.39
2023-01-29T08:12:33.398Z,101503.15
2023-01-29T08:17:01.100Z,101498.75
2023-01-29T08:21:47.903Z,101490.49
2023-01-29T08:26:15.628Z,101487.84
2023-01-29T08:30:43.439Z,101488.21
2023-01-29T08:35:15.894Z,101485.70
2023-01-29T08:39:48.951Z,101486.49
2023-01-29T08:44:21.454Z,101487.09
2023-01-29T08:48:54.097Z,101491.63
2023-01-29T08:53:19.290Z,101491.80
2023-01-29T08:57:51.953Z,101481.14
2023-01-29T09:02:25.005Z,101478.20
2023-01-29T09:06:49.243Z,101475.85
2023-01-29T09:16:08.688Z,101465.26
2023-01-29T09:20:40.952Z,101464.85
2023-01-29T09:25:14.637Z,101463.80
2023-01-29T09:29:47.714Z,101460.58
2023-01-29T09:34:20.057Z,101452.72
2023-01-29T09:39:07.097Z,101434.30
2023-01-29T09:43:48.242Z,101433.43
2023-01-29T09:48:39.682Z,101436.33
2023-01-29T09:53:06.460Z,101427.37
2023-01-29T09:57:38.813Z,101417.05
2023-01-29T10:02:13.732Z,101423.69
2023-01-29T10:06:45.516Z,101422.16
2023-01-29T10:11:23.893Z,101422.39
2023-01-29T10:16:00.534Z,101421.77
2023-01-29T10:20:29.796Z,101410.15
2023-01-29T10:25:03.389Z,101401.73
2023-01-29T10:29:38.937Z,101393.04
2023-01-29T10:34:11.037Z,101389.12
2023-01-29T10:38:43.500Z,101382.15
2023-01-29T10:43:16.137Z,101377.66
2023-01-29T10:47:50.486Z,101376.08
2023-01-29T10:52:15.155Z,101374.85
2023-01-29T10:56:52.004Z,101351.06
2023-01-29T11:01:23.004Z,101346.92
2023-01-29T11:05:53.081Z,101334.10
2023-01-29T11:10:30.101Z,101325.02
2023-01-29T11:15:19.541Z,101313.80
2023-01-29T11:19:54.520Z,101309.99
2023-01-29T11:24:27.142Z,101319.22
2023-01-29T11:28:59.631Z,101320.92
2023-01-29T11:33:35.451Z,101323.98
2023-01-29T11:38:11.505Z,101307.39
2023-01-29T11:42:46.710Z,101307.22
2023-01-29T11:47:33.083Z,101311.90
2023-01-29T11:52:25.713Z,101304.13
2023-01-29T11:56:57.968Z,101298.56
2023-01-29T12:01:31.214Z,101275.19
2023-01-29T12:06:04.317Z,101265.81
2023-01-29T12:10:49.423Z,101271.06
2023-01-29T12:15:34.890Z,101258.40
2023-01-29T12:20:19.462Z,101242.79
2023-01-29T12:24:50.338Z,101233.85
2023-01-29T12:29:20.033Z,101214.16
2023-01-29T12:33:55.728Z,101217.63
2023-01-29T12:38:40.349Z,101214.89
2023-01-29T12:43:13.238Z,101212.63
2023-01-29T12:47:40.967Z,101207.26
2023-01-29T12:52:13.487Z,101196.53
2023-01-29T13:01:37.790Z,101179.21
2023-01-29T13:06:22.164Z,101182.16
2023-01-29T13:11:08.886Z,101183.55
2023-01-29T13:15:52.680Z,101188.13
2023-01-29T13:20:25.418Z,101182.21
2023-01-29T13:25:04.985Z,101174.45
2023-01-29T13:29:38.251Z,101161.92
2023-01-29T13:34:10.811Z,101168.64
2023-01-29T13:38:50.488Z,101172.89
2023-01-29T13:43:32.101Z,101174.27
2023-01-29T13:48:07.347Z,101185.63
2023-01-29T13:52:40.323Z,101184.41
2023-01-29T13:57:14.625Z,101180.10
2023-01-29T14:01:49.454Z,101179.50
2023-01-29T14:06:40.102Z,101179.78
2023-01-29T14:11:18.427Z,101172.79
2023-01-29T14:15:59.829Z,101164.18
2023-01-29T14:20:58.021Z,101165.25
2023-01-29T14:25:30.844Z,101154.94
2023-01-29T14:30:06.165Z,101153.27
2023-01-29T14:35:06.476Z,101151.32
2023-01-29T14:39:38.185Z,101154.46
2023-01-29T14:44:10.877Z,101148.14
2023-01-29T14:49:00.432Z,101150.20
2023-01-29T14:53:44.521Z,101144.85
2023-01-29T14:58:17.211Z,101136.45
2023-01-29T15:03:03.587Z,101132.79
2023-01-29T15:07:51.353Z,101118.30
2023-01-29T15:12:38.683Z,101104.95
2023-01-29T15:17:23.357Z,101102.61
2023-01-29T15:22:05.089Z,101087.83
2023-01-29T15:26:37.537Z,101092.77
2023-01-29T15:31:10.680Z,101090.05
2023-01-29T15:35:42.810Z,101082.50
2023-01-29T15:40:18.546Z,101080.92
2023-01-29T15:44:53.903Z,101079.41
2023-01-29T15:49:26.228Z,101076.67
2023-01-29T15:53:51.916Z,101074.15
2023-01-29T15:58:27.431Z,101061.85
2023-01-29T16:03:00.054Z,101069.73
2023-01-29T16:07:34.224Z,101066.45
2023-01-29T16:12:03.162Z,101057.34
2023-01-29T16:16:42.143Z,101062.34
2023-01-29T16:21:14.821Z,101060.91
2023-01-29T16:25:48.228Z,101061.35
2023-01-29T16:30:20.978Z,101055.77
2023-01-29T16:34:51.792Z,101052.91
2023-01-29T16:39:24.154Z,101054.20
2023-01-29T16:43:59.821Z,101050.36
2023-01-29T16:48:46.081Z,101038.95
2023-01-29T16:53:19.404Z,101034.23
2023-01-29T16:57:52.086Z,101029.89
2023-01-29T17:02:27.307Z,101031.62
2023-01-29T17:07:00.346Z,101016.33
2023-01-29T17:11:33.073Z,101011.82
2023-01-29T17:16:23.502Z,101002.41
2023-01-29T17:20:55.686Z,100995.80
2023-01-29T17:25:28.067Z,100985.77
2023-01-29T17:30:03.445Z,100980.98
2023-01-29T17:34:35.908Z,100962.92
2023-01-29T17:39:09.236Z,100958.66
2023-01-29T17:43:41.479Z,100945.78
2023-01-29T17:48:28.277Z,100937.95
2023-01-29T17:53:01.209Z,100927.98
2023-01-29T17:57:33.747Z,100915.61
2023-01-29T18:02:07.660Z,100908.09
2023-01-29T18:06:40.896Z,100902.94
2023-01-29T18:11:19.499Z,100896.60
2023-01-29T18:15:52.442Z,100891.92
2023-01-29T18:20:19.436Z,100879.31
2023-01-29T18:24:52.782Z,100875.02
2023-01-29T18:29:25.610Z,100869.62
2023-01-29T18:34:17.321Z,100863.57
2023-01-29T18:38:49.543Z,100850.80
2023-01-29T18:43:22.128Z,100836.77
2023-01-29T18:47:55.491Z,100827.92
2023-01-29T18:52:27.728Z,100821.45
2023-01-29T18:57:13.295Z,100812.95
2023-01-29T19:01:56.180Z,100803.84
2023-01-29T19:06:29.403Z,100794.35
2023-01-29T19:11:01.974Z,100781.23
2023-01-29T19:15:27.760Z,100771.05
2023-01-29T19:20:19.733Z,100766.11
2023-01-29T19:24:51.562Z,100763.17
2023-01-29T19:29:23.844Z,100763.81
2023-01-29T19:33:50.150Z,100758.67
2023-01-29T19:38:30.947Z,100745.70
2023-01-29T19:43:03.903Z,100739.89
2023-01-29T19:47:36.403Z,100723.43
2023-01-29T19:52:09.022Z,100703.32
2023-01-29T19:56:41.888Z,100690.42
2023-01-29T20:01:14.489Z,100690.98
2023-01-29T20:05:47.463Z,100689.90
2023-01-29T20:10:20.838Z,100685.02
2023-01-29T20:14:54.538Z,100686.98
2023-01-29T20:19:27.678Z,100679.69
2023-01-29T20:24:00.946Z,100676.40
2023-01-29T20:28:33.681Z,100661.69
2023-01-29T20:32:55.039Z,100656.39
2023-01-29T20:37:28.070Z,100638.38
2023-01-29T20:42:13.284Z,100632.30
2023-01-29T20:46:41.124Z,100625.00
2023-01-29T20:51:13.933Z,100613.61
2023-01-29T20:55:46.591Z,100599.43
2023-01-29T21:00:38.394Z,100581.25
2023-01-29T21:05:10.785Z,100572.20
2023-01-29T21:09:43.627Z,100571.39
2023-01-29T21:14:23.472Z,100559.38
2023-01-29T21:18:40.978Z,100549.21
2023-01-29T21:23:13.505Z,100535.73
2023-01-29T21:27:46.378Z,100526.70
2023-01-29T21:32:19.284Z,100514.78
2023-01-29T21:36:51.686Z,100517.08
2023-01-29T21:41:24.570Z,100522.92
2023-01-29T21:45:57.667Z,100527.08
2023-01-29T21:50:47.152Z,100511.00
2023-01-29T21:55:12.280Z,100502.52
2023-01-29T21:59:48.435Z,100508.36
2023-01-29T22:04:26.688Z,100493.46
2023-01-29T22:08:55.435Z,100471.20
2023-01-29T22:13:23.012Z,100465.85
2023-01-29T22:17:54.275Z,100448.13
2023-01-29T22:22:26.944Z,100444.15
2023-01-29T22:27:05.316Z,100432.67
2023-01-29T22:31:44.394Z,100420.01
2023-01-29T22:36:16.817Z,100407.48
2023-01-29T22:40:49.760Z,100400.85
2023-01-29T22:45:22.225Z,100393.38
2023-01-29T22:50:08.256Z,100372.89
2023-01-29T22:54:55.421Z,100351.52
2023-01-29T22:59:31.006Z,100342.84
2023-01-29T23:04:21.613Z,100321.02
2023-01-29T23:08:54.096Z,100305.48
2023-01-29T23:13:27.463Z,100298.91
2023-01-29T23:17:49.783Z,100288.05
2023-01-29T23:22:22.019Z,100276.95
2023-01-29T23:26:56.105Z,100276.12
2023-01-29T23:31:28.862Z,100269.48
2023-01-29T23:36:01.921Z,100258.58
2023-01-29T23:40:34.447Z,100245.41
2023-01-29T23:44:59.593Z,100240.00
2023-01-29T23:49:32.457Z,100235.89
2023-01-29T23:54:05.267Z,100228.30
2023-01-29T23:58:37.472Z,100215.14
